Aérodrome :
LOGIN :

S'inscrire | Disclaimer

   EN    FR    IT 

 










Légende :    VFR   VFR Marginal   IFR   IFR Intensif   IFR Très Intensif
Visi : 
Plafond : 
>= 8 km
>= 3000ft
5 à 8 km
1000 à 3000 ft
1500m à 5 km
500 à 1000 ft
800 à 1500m
200 à 500 ft
< 800m
< 200 ft
Symboles :   Orages  Brouillard  Fortes neiges  Fortes précipitations  Vent > 20 kt
SIGMETs :   Divers  Orages  Givrage  Turbulence  Onde Orograph.  Cendres Volcan.






- Altitude de l'aérodrome : 37 ft


EHVL - Vlieland Heliport

DERNIER METAR :
  • 091925Z AUTO 27007KT 9999 SCT042 03/01 Q1005 BLU

METARs EXPIRÉS :
  • 090455Z AUTO 20011KT 6000 DZ FEW015CB SCT021 BKN027 01/01 Q1005 WHT
  • 091855Z AUTO 29012KT 9999 FEW042 03/01 Q1005 BLU
  • 091840Z AUTO 27010KT 240V300 9999 NCD 03/01 Q1005 BLU
  • 091825Z AUTO 25006KT 180V320 6000 BR NCD 03/02 Q1005 WHT
  • 091755Z AUTO 18009KT 150V220 4400 BR NCD 03/02 Q1005 GRN
  • 091747Z AUTO 18010KT 3500 BR FEW037 03/02 Q1005 YLO
  • 091725Z AUTO 19008KT 4500 BR BKN042 03/02 Q1004 GRN
  • 091700Z AUTO 18009KT 4700 BR FEW037 SCT053 03/02 Q1004 GRN
  • 091655Z AUTO 18009KT 5000 BR SCT038 BKN053 03/02 Q1004 WHT
  • 091648Z AUTO 18009KT 4800 BR SCT038 SCT043 BKN053 03/02 Q1004 GRN
  • 091638Z AUTO 18008KT 6000 HZ SCT043 BKN056 04/02 Q1004 WHT

Prévision TAF périmée.



MET'MAP, la Météo Aéronautique d'un coup d'oeil ! - Copyright ORBIFLY Décembre 2007 - Disclaimer

ORBIFLY MET'MAP TEAM :

Programmation & Développement : Alexandra Zaïnal
Sur une idée originale de : Baudouin d'Aumeries
Soutien technique & logistique : Manuel Goepfert
Assistance : Marc-Olivier Méhu




SOURCES & CREDITS :

   NOAA